Morgenstond III — PBAX — position and weather

sailwx.info

Track history (hours):
 
Tides and Currents Weather Stations Pressure Air Temp Water Temp Dewpoint Dewpoint Depression Visibility Wind Speed Wind Dir Waves Ship Positions

Morgenstond III

Last reported at 2017-Nov-18 01:39 UTC. Time now 2017-Nov-18 02:58 UTC.
Position N 59°50' E 025°19'.

Length 110 m; draft 3.9 m.

Type: Cargo ship. MMSI: 244562000.

Date/timePositionNaut miles runAvg speedWind from/ knotsBaromVisibWave heightAir tempDewpointWater temp
2017-Nov-18 01:39N 59°50' E 025°19'213.2
2017-Nov-18 01:30N 59°49' E 025°15'813.0
2017-Nov-18 00:54N 59°47' E 024°60'512.7
2017-Nov-18 00:30N 59°46' E 024°50'612.9
2017-Nov-18 00:01N 59°45' E 024°38'714.1
2017-Nov-17 23:31N 59°44' E 024°24'611.6
2017-Nov-17 23:00N 59°43' E 024°12'712.7
2017-Nov-17 22:27N 59°42' E 023°59'612.7
2017-Nov-17 22:01N 59°42' E 023°48'612.7
2017-Nov-17 21:30N 59°42' E 023°35'612.8
2017-Nov-17 21:01N 59°42' E 023°22'612.9
2017-Nov-17 20:30N 59°42' E 023°09'611.4
2017-Nov-17 20:01N 59°46' E 023°01'4 7.2
2017-Nov-17 19:29N 59°48' E 023°07'510.5
2017-Nov-17 19:01N 59°49' E 023°17'4 7.4
2017-Nov-17 18:30N 59°53' E 023°14'0 0.0
2017-Nov-17 17:56N 59°53' E 023°14'0 0.0
2017-Nov-17 17:29N 59°53' E 023°14'0 0.0
2017-Nov-17 16:59N 59°53' E 023°14'0 0.0
2017-Nov-17 16:29N 59°53' E 023°14'0 0.0
2017-Nov-17 15:56N 59°53' E 023°14'0 0.0
2017-Nov-17 15:29N 59°53' E 023°14'0 0.0
2017-Nov-17 14:59N 59°53' E 023°14'0 0.0
2017-Nov-17 14:26N 59°53' E 023°14'0 0.0
2017-Nov-17 13:53N 59°53' E 023°14'0 0.0
2017-Nov-17 13:29N 59°53' E 023°14'0 0.0
2017-Nov-17 12:59N 59°53' E 023°14'0 0.0
2017-Nov-17 12:29N 59°53' E 023°14'0 0.0
2017-Nov-17 11:59N 59°53' E 023°14'0 0.0
2017-Nov-17 11:29N 59°53' E 023°14'1 2.2
2017-Nov-17 11:00N 59°52' E 023°15'4 8.3
2017-Nov-17 10:30N 59°48' E 023°13'511.0
2017-Nov-17 10:00N 59°47' E 023°02'4 7.6
2017-Nov-17 09:30N 59°43' E 023°04'3 6.5
2017-Nov-17 09:00N 59°42' E 023°10'4 7.0
2017-Nov-17 08:30N 59°41' E 023°17'3 6.7
2017-Nov-17 08:00N 59°41' E 023°23'3 6.4
2017-Nov-17 07:30N 59°40' E 023°30'4 7.2
2017-Nov-17 07:00N 59°39' E 023°37'4 8.8
2017-Nov-17 06:30N 59°38' E 023°45'5 9.2
2017-Nov-17 06:01N 59°37' E 023°54'910.3
2017-Nov-17 05:07N 59°35' E 024°12'310.8
2017-Nov-17 04:52N 59°35' E 024°17'410.7
2017-Nov-17 04:31N 59°34' E 024°24'510.7
2017-Nov-17 04:00N 59°29' E 024°30'1 1.5
2017-Nov-17 03:28N 59°29' E 024°32'0 0.0
2017-Nov-17 02:58N 59°29' E 024°32'0 0.0
2017-Nov-17 02:28N 59°29' E 024°32'0 0.0
2017-Nov-17 01:58N 59°29' E 024°32'0 0.0
2017-Nov-17 01:28N 59°29' E 024°32'0 0.0
2017-Nov-17 00:58N 59°29' E 024°32'0 0.0
2017-Nov-17 00:28N 59°29' E 024°32'0 0.1
2017-Nov-16 23:58N 59°29' E 024°32'1 1.7
2017-Nov-16 23:30N 59°29' E 024°30'3 5.2
2017-Nov-16 23:00N 59°31' E 024°27'5 9.5
2017-Nov-16 22:30N 59°36' E 024°24'510.3
2017-Nov-16 22:00N 59°40' E 024°29'510.9
2017-Nov-16 21:30N 59°43' E 024°39'510.5
2017-Nov-16 21:01N 59°47' E 024°44'510.9
2017-Nov-16 20:30N 59°49' E 024°54'611.1
2017-Nov-16 20:00N 59°51' E 025°05'611.1
2017-Nov-16 19:30N 59°52' E 025°15'3110.8
2017-Nov-16 16:36N 60°05' E 026°12'111.1
2017-Nov-16 16:30N 60°06' E 026°13'611.3
2017-Nov-16 16:00N 60°10' E 026°21'611.3
2017-Nov-16 15:30N 60°15' E 026°27'510.2
2017-Nov-16 15:00N 60°19' E 026°34'611.4
2017-Nov-16 14:30N 60°22' E 026°43'611.2
2017-Nov-16 14:00N 60°24' E 026°54'2 4.0
2017-Nov-16 13:30N 60°26' E 026°55'0 0.0
2017-Nov-16 12:59N 60°26' E 026°55'0 0.0
2017-Nov-16 12:29N 60°26' E 026°55'0 0.0
2017-Nov-16 11:59N 60°26' E 026°55'0 0.0
2017-Nov-16 11:29N 60°26' E 026°55'0 0.0
2017-Nov-16 10:59N 60°26' E 026°55'0 0.0
2017-Nov-16 10:29N 60°26' E 026°55'0 0.0
2017-Nov-16 09:59N 60°26' E 026°55'0 0.0
2017-Nov-16 09:29N 60°26' E 026°55'0 0.0
2017-Nov-16 08:59N 60°26' E 026°55'0 0.0
2017-Nov-16 08:29N 60°26' E 026°55'0 0.0
2017-Nov-16 07:59N 60°26' E 026°55'0 0.0
2017-Nov-16 07:29N 60°26' E 026°55'0 0.0
2017-Nov-16 06:59N 60°26' E 026°55'0 0.0
2017-Nov-16 06:29N 60°26' E 026°55'0 0.0
2017-Nov-16 05:59N 60°26' E 026°55'0 0.0
2017-Nov-16 05:29N 60°26' E 026°55'0 0.0
2017-Nov-16 04:59N 60°26' E 026°55'0 0.0
2017-Nov-16 04:29N 60°26' E 026°55'0 0.0
2017-Nov-16 03:59N 60°26' E 026°55'0 0.0
2017-Nov-16 03:29N 60°26' E 026°55'0 0.0
2017-Nov-16 02:59N 60°26' E 026°55'1 1.4
2017-Nov-16 02:30N 60°26' E 026°56'611.1
2017-Nov-16 02:01N 60°23' E 026°47'612.1
2017-Nov-16 01:31N 60°20' E 026°37'612.3
2017-Nov-16 01:00N 60°15' E 026°28'5 9.7
2017-Nov-16 00:30N 60°11' E 026°23'510.0
2017-Nov-16 00:00N 60°07' E 026°17'34 9.7
2017-Nov-15 20:31N 59°49' E 025°19'011.2
2017-Nov-15 20:30N 59°49' E 025°19'611.0
2017-Nov-15 20:00N 59°48' E 025°08'511.0
2017-Nov-15 19:30N 59°47' E 024°57'611.0
2017-Nov-15 19:00N 59°46' E 024°47'510.9
2017-Nov-15 18:30N 59°45' E 024°36'611.0
2017-Nov-15 18:01N 59°44' E 024°25'510.8
2017-Nov-15 17:30N 59°43' E 024°15'610.9
2017-Nov-15 16:55N 59°43' E 024°02'410.9
2017-Nov-15 16:30N 59°42' E 023°53'510.8
2017-Nov-15 16:00N 59°42' E 023°42'510.8
2017-Nov-15 15:30N 59°42' E 023°32'510.9
2017-Nov-15 15:00N 59°42' E 023°21'611.1
2017-Nov-15 14:30N 59°42' E 023°10'510.6
2017-Nov-15 14:00N 59°45' E 023°01'3 6.2
2017-Nov-15 13:30N 59°48' E 023°05'611.7
2017-Nov-15 13:00N 59°49' E 023°16'4 8.1
2017-Nov-15 12:30N 59°53' E 023°14'0 0.2
2017-Nov-15 12:00N 59°53' E 023°14'0 0.0
2017-Nov-15 11:30N 59°53' E 023°14'0 0.0
2017-Nov-15 11:00N 59°53' E 023°14'0 0.0
2017-Nov-15 10:27N 59°53' E 023°14'0 0.0
2017-Nov-15 10:00N 59°53' E 023°14'0 0.0
2017-Nov-15 09:12N 59°53' E 023°14'0 0.0
2017-Nov-15 09:00N 59°53' E 023°14'0 0.0
2017-Nov-15 08:30N 59°53' E 023°14'0 0.0
2017-Nov-15 08:00N 59°53' E 023°14'0 0.0
2017-Nov-15 07:30N 59°53' E 023°14'0 0.0
2017-Nov-15 06:54N 59°53' E 023°14'0 0.0
2017-Nov-15 06:30N 59°53' E 023°14'0 0.0
2017-Nov-15 06:00N 59°53' E 023°14'0 0.0
2017-Nov-15 05:30N 59°53' E 023°14'0 0.0
2017-Nov-15 05:00N 59°53' E 023°14'0 0.0
2017-Nov-15 04:30N 59°53' E 023°14'1 1.6
2017-Nov-15 04:01N 59°52' E 023°15'4 8.0
2017-Nov-15 03:30N 59°48' E 023°14'611.2
2017-Nov-15 03:00N 59°48' E 023°03'4 7.1
2017-Nov-15 02:30N 59°44' E 023°04'4 8.1
2017-Nov-15 01:59N 59°42' E 023°12'4 9.0
2017-Nov-15 01:30N 59°42' E 023°20'4 8.9
2017-Nov-15 01:00N 59°42' E 023°29'4 8.9
2017-Nov-15 00:30N 59°43' E 023°38'4 8.9
2017-Nov-15 00:00N 59°44' E 023°46'4 8.8
2017-Nov-14 23:30N 59°45' E 023°55'5 8.8
2017-Nov-14 22:58N 59°46' E 024°04'6 9.0
2017-Nov-14 22:18N 59°47' E 024°16'3 9.0
2017-Nov-14 22:00N 59°48' E 024°21'510.6
2017-Nov-14 21:30N 59°49' E 024°31'4 7.4
2017-Nov-14 21:01N 59°50' E 024°38'4 8.7
2017-Nov-14 20:30N 59°51' E 024°47'7 8.8
2017-Nov-14 19:42N 59°53' E 025°00'2 8.7
2017-Nov-14 19:30N 59°53' E 025°03'4 8.7
2017-Nov-14 19:00N 59°54' E 025°12'5 8.5
2017-Nov-14 18:28N 59°55' E 025°21'10 8.7
2017-Nov-14 17:16N 59°57' E 025°41'18 9.4
2017-Nov-14 15:19N 60°07' E 026°12'3 9.7
2017-Nov-14 15:00N 60°09' E 026°17'5 9.9
2017-Nov-14 14:31N 60°13' E 026°24'5 9.6
2017-Nov-14 14:00N 60°16' E 026°30'611.3
2017-Nov-14 13:31N 60°20' E 026°38'612.7
2017-Nov-14 13:01N 60°23' E 026°49'4 8.9
2017-Nov-14 12:31N 60°26' E 026°56'1 1.1
2017-Nov-14 12:00N 60°26' E 026°55'0 0.0
2017-Nov-14 11:30N 60°26' E 026°55'0 0.0
2017-Nov-14 11:00N 60°26' E 026°55'0 0.0
2017-Nov-14 10:30N 60°26' E 026°55'0 0.0
2017-Nov-14 10:00N 60°26' E 026°55'0 0.0
2017-Nov-14 09:30N 60°26' E 026°55'0 0.0
2017-Nov-14 09:00N 60°26' E 026°55'0 0.0
2017-Nov-14 08:30N 60°26' E 026°55'0 0.0
2017-Nov-14 08:00N 60°26' E 026°55'0 0.0
2017-Nov-14 07:30N 60°26' E 026°55'0 0.0
2017-Nov-14 07:00N 60°26' E 026°55'0 0.0
2017-Nov-14 06:30N 60°26' E 026°55'0 0.0
2017-Nov-14 06:00N 60°26' E 026°55'0 0.0
2017-Nov-14 05:30N 60°26' E 026°55'0 0.0
2017-Nov-14 05:00N 60°26' E 026°55'0 0.0
2017-Nov-14 04:30N 60°26' E 026°55'0 0.0
2017-Nov-14 04:00N 60°26' E 026°55'0 0.0
2017-Nov-14 03:30N 60°26' E 026°55'0 0.1
2017-Nov-14 03:00N 60°26' E 026°55'3 6.6
2017-Nov-14 02:30N 60°24' E 026°51'612.6
2017-Nov-14 02:00N 60°21' E 026°39'612.7
2017-Nov-14 01:31N 60°17' E 026°30'4 9.0
2017-Nov-14 01:01N 60°13' E 026°24'4 7.2
2017-Nov-14 00:31N 60°10' E 026°21'4 8.5
2017-Nov-14 00:00N 60°07' E 026°16'93 4.2
2017-Nov-13 02:00N 59°42' E 023°18'510.5
2017-Nov-13 01:30N 59°42' E 023°29'510.6
2017-Nov-13 01:01N 59°43' E 023°39'510.6
2017-Nov-13 00:30N 59°44' E 023°49'510.6
2017-Nov-13 00:00N 59°45' E 023°59'1010.5
2017-Nov-12 23:05N 59°47' E 024°18'110.5
2017-Nov-12 23:00N 59°48' E 024°20'510.3
2017-Nov-12 22:30N 59°49' E 024°30'510.2
2017-Nov-12 22:00N 59°50' E 024°39'10 9.6
2017-Nov-12 20:55N 59°52' E 024°60'4 9.8
2017-Nov-12 20:29N 59°53' E 025°08'5 9.7
2017-Nov-12 20:01N 59°55' E 025°17'6 9.9
2017-Nov-12 19:26N 59°56' E 025°28'2410.1
2017-Nov-12 17:00N 60°07' E 026°12'510.5
2017-Nov-12 16:31N 60°10' E 026°20'510.4
2017-Nov-12 16:00N 60°14' E 026°26'510.2
2017-Nov-12 15:31N 60°18' E 026°33'611.1
2017-Nov-12 15:00N 60°22' E 026°41'611.1
2017-Nov-12 14:30N 60°24' E 026°51'3 6.2
2017-Nov-12 14:01N 60°26' E 026°55'0 0.4
2017-Nov-12 13:29N 60°26' E 026°55'0 0.0
2017-Nov-12 12:59N 60°26' E 026°55'0 0.0
2017-Nov-12 12:29N 60°26' E 026°55'0 0.0
2017-Nov-12 11:59N 60°26' E 026°55'0 0.0
2017-Nov-12 11:29N 60°26' E 026°55'0 0.0
2017-Nov-12 10:59N 60°26' E 026°55'0 0.0
2017-Nov-12 10:29N 60°26' E 026°55'0 0.0
2017-Nov-12 09:59N 60°26' E 026°55'0 0.0
2017-Nov-12 09:29N 60°26' E 026°55'0 0.0
2017-Nov-12 08:59N 60°26' E 026°55'0 0.0
2017-Nov-12 08:28N 60°26' E 026°55'0 0.0
2017-Nov-12 07:59N 60°26' E 026°55'0 0.0
2017-Nov-12 07:29N 60°26' E 026°55'0 0.0
2017-Nov-12 06:59N 60°26' E 026°55'0 0.0
2017-Nov-12 06:29N 60°26' E 026°55'0 0.0
2017-Nov-12 05:59N 60°26' E 026°55'0 0.0
2017-Nov-12 05:29N 60°26' E 026°55'0 0.0
2017-Nov-12 04:59N 60°26' E 026°55'0 0.0
2017-Nov-12 04:29N 60°26' E 026°55'0 0.0
2017-Nov-12 03:59N 60°26' E 026°55'0 0.0
2017-Nov-12 03:29N 60°26' E 026°55'0 0.0
2017-Nov-12 02:59N 60°26' E 026°55'2 4.0
2017-Nov-12 02:30N 60°24' E 026°54'611.5
2017-Nov-12 02:00N 60°22' E 026°43'611.6
2017-Nov-12 01:30N 60°19' E 026°34'5 9.9
2017-Nov-12 01:01N 60°16' E 026°26'611.1
2017-Nov-12 00:31N 60°11' E 026°21'611.1
2017-Nov-12 00:01N 60°06' E 026°15'3210.8
2017-Nov-11 21:05N 59°50' E 025°21'111.5
2017-Nov-11 21:00N 59°49' E 025°19'611.3
2017-Nov-11 20:30N 59°48' E 025°08'611.2
2017-Nov-11 20:00N 59°47' E 024°57'611.3
2017-Nov-11 19:30N 59°46' E 024°46'611.6
2017-Nov-11 19:01N 59°45' E 024°35'611.6
2017-Nov-11 18:30N 59°44' E 024°23'1111.9
2017-Nov-11 17:36N 59°43' E 024°02'312.1
2017-Nov-11 17:23N 59°42' E 023°57'512.2
2017-Nov-11 17:00N 59°42' E 023°48'612.2
2017-Nov-11 16:30N 59°42' E 023°36'612.2
2017-Nov-11 16:00N 59°42' E 023°24'612.3
2017-Nov-11 15:30N 59°43' E 023°12'510.8
2017-Nov-11 15:00N 59°45' E 023°02'4 7.5
2017-Nov-11 14:30N 59°48' E 023°08'510.6
2017-Nov-11 14:00N 59°50' E 023°17'3 5.9
2017-Nov-11 13:30N 59°53' E 023°13'0 0.0
2017-Nov-11 13:00N 59°53' E 023°13'0 0.0
2017-Nov-11 12:30N 59°53' E 023°13'0 0.0
2017-Nov-11 12:00N 59°53' E 023°13'0 0.0
2017-Nov-11 11:30N 59°53' E 023°13'0 0.0
2017-Nov-11 11:00N 59°53' E 023°13'0 0.0
2017-Nov-11 10:30N 59°53' E 023°13'0 0.0
2017-Nov-11 10:00N 59°53' E 023°13'0 0.0
2017-Nov-11 09:30N 59°53' E 023°13'0 0.0
2017-Nov-11 08:57N 59°53' E 023°13'0 0.0
2017-Nov-11 08:30N 59°53' E 023°13'0 0.0
2017-Nov-11 08:00N 59°53' E 023°13'0 0.0
2017-Nov-11 07:30N 59°53' E 023°13'0 0.0
2017-Nov-11 07:00N 59°53' E 023°13'0 0.0
2017-Nov-11 06:30N 59°53' E 023°13'0 0.0
2017-Nov-11 06:00N 59°53' E 023°13'0 0.0
2017-Nov-11 05:30N 59°53' E 023°13'1 1.8
2017-Nov-11 05:00N 59°52' E 023°15'4 8.4
2017-Nov-11 04:30N 59°48' E 023°13'510.4
2017-Nov-11 04:00N 59°48' E 023°03'4 7.6
2017-Nov-11 03:28N 59°44' E 023°04'510.5
2017-Nov-11 03:00N 59°42' E 023°14'611.0
2017-Nov-11 02:30N 59°42' E 023°25'611.2
2017-Nov-11 02:00N 59°43' E 023°35'611.1
2017-Nov-11 01:30N 59°44' E 023°46'611.1
2017-Nov-11 01:00N 59°45' E 023°57'610.9
2017-Nov-11 00:29N 59°46' E 024°08'511.0
2017-Nov-11 00:00N 59°47' E 024°18'510.9
2017-Nov-10 23:30N 59°49' E 024°29'510.9
2017-Nov-10 23:00N 59°50' E 024°39'710.9
2017-Nov-10 22:21N 59°51' E 024°53'410.7
2017-Nov-10 22:00N 59°52' E 025°00'510.7
2017-Nov-10 21:30N 59°54' E 025°11'510.6
2017-Nov-10 20:59N 59°55' E 025°21'510.6
2017-Nov-10 20:29N 59°56' E 025°32'2310.4
2017-Nov-10 18:17N 60°07' E 026°12'310.6
2017-Nov-10 18:00N 60°09' E 026°17'510.4
2017-Nov-10 17:30N 60°12' E 026°24'5 9.5
2017-Nov-10 17:00N 60°16' E 026°30'510.7
2017-Nov-10 16:30N 60°20' E 026°37'510.5
2017-Nov-10 16:00N 60°23' E 026°46'510.6
2017-Nov-10 15:30N 60°25' E 026°56'1 2.1
2017-Nov-10 15:00N 60°26' E 026°55'0 0.0
2017-Nov-10 14:28N 60°26' E 026°55'0 0.0
2017-Nov-10 13:58N 60°26' E 026°55'0 0.0
2017-Nov-10 13:28N 60°26' E 026°55'0 0.0
2017-Nov-10 12:58N 60°26' E 026°55'0 0.0
2017-Nov-10 12:28N 60°26' E 026°55'0 0.0
2017-Nov-10 11:58N 60°26' E 026°55'0 0.0
2017-Nov-10 11:28N 60°26' E 026°55'0 0.0
2017-Nov-10 10:58N 60°26' E 026°55'0 0.0
2017-Nov-10 10:25N 60°26' E 026°55'0 0.0
2017-Nov-10 09:58N 60°26' E 026°55'0 0.0
2017-Nov-10 09:28N 60°26' E 026°55'0 0.0
2017-Nov-10 08:58N 60°26' E 026°55'0 0.0
2017-Nov-10 08:28N 60°26' E 026°55'0 0.0
2017-Nov-10 07:58N 60°26' E 026°55'0 0.0
2017-Nov-10 07:28N 60°26' E 026°55'0 0.0
2017-Nov-10 06:58N 60°26' E 026°55'0 0.0
2017-Nov-10 06:28N 60°26' E 026°55'0 0.0
2017-Nov-10 05:58N 60°26' E 026°55'0 0.0
2017-Nov-10 05:28N 60°26' E 026°55'0 0.0
2017-Nov-10 04:58N 60°26' E 026°55'0 0.0
2017-Nov-10 04:28N 60°26' E 026°55'0 0.0
2017-Nov-10 03:58N 60°26' E 026°55'0 0.3
2017-Nov-10 03:30N 60°26' E 026°55'4 7.3
2017-Nov-10 03:01N 60°24' E 026°51'612.4
2017-Nov-10 02:31N 60°21' E 026°39'612.9
2017-Nov-10 02:01N 60°16' E 026°30'612.1
2017-Nov-10 01:31N 60°12' E 026°22'713.1
2017-Nov-10 01:00N 60°06' E 026°15'3312.2
2017-Nov-09 22:19N 59°49' E 025°20'412.2
2017-Nov-09 22:00N 59°48' E 025°12'612.6
2017-Nov-09 21:30N 59°47' E 024°60'612.8
2017-Nov-09 21:00N 59°46' E 024°47'612.4
2017-Nov-09 20:30N 59°45' E 024°35'612.0
2017-Nov-09 20:00N 59°44' E 024°24'612.4
2017-Nov-09 19:30N 59°43' E 024°12'612.5
2017-Nov-09 19:00N 59°42' E 023°59'612.3
2017-Nov-09 18:30N 59°42' E 023°47'612.3
2017-Nov-09 18:01N 59°42' E 023°35'612.2
2017-Nov-09 17:30N 59°42' E 023°23'612.0
2017-Nov-09 17:01N 59°42' E 023°11'510.5
2017-Nov-09 16:31N 59°45' E 023°02'5 5.8
2017-Nov-09 15:37N 59°48' E 023°11'110.8
2017-Nov-09 15:31N 59°48' E 023°13'4 8.2
2017-Nov-09 15:01N 59°52' E 023°15'1 2.1
2017-Nov-09 14:30N 59°53' E 023°13'0 0.0
2017-Nov-09 13:57N 59°53' E 023°13'0 0.0
2017-Nov-09 13:30N 59°53' E 023°13'0 0.0
2017-Nov-09 13:00N 59°53' E 023°13'0 0.0
2017-Nov-09 12:30N 59°53' E 023°13'0 0.0
2017-Nov-09 12:00N 59°53' E 023°13'0 0.0
2017-Nov-09 11:30N 59°53' E 023°13'0 0.0
2017-Nov-09 11:00N 59°53' E 023°13'0 0.0
2017-Nov-09 10:30N 59°53' E 023°13'0 0.0
2017-Nov-09 09:57N 59°53' E 023°13'0 0.0
2017-Nov-09 09:30N 59°53' E 023°13'0 0.0
2017-Nov-09 08:57N 59°53' E 023°13'0 0.0
2017-Nov-09 08:30N 59°53' E 023°13'0 0.0
2017-Nov-09 08:00N 59°53' E 023°13'0 0.0
2017-Nov-09 07:30N 59°53' E 023°13'0 0.0
2017-Nov-09 07:00N 59°53' E 023°13'0 0.0
2017-Nov-09 06:30N 59°53' E 023°13'0 0.0
2017-Nov-09 06:00N 59°53' E 023°13'0 0.0
2017-Nov-09 05:30N 59°53' E 023°13'0 0.0
2017-Nov-09 05:00N 59°53' E 023°13'0 0.0
2017-Nov-09 04:30N 59°53' E 023°13'1 1.9
2017-Nov-09 04:00N 59°52' E 023°15'4 8.2
2017-Nov-09 03:30N 59°48' E 023°13'611.2
2017-Nov-09 03:00N 59°47' E 023°02'4 7.9
2017-Nov-09 02:30N 59°44' E 023°04'4 8.0
2017-Nov-09 01:58N 59°42' E 023°13'4 8.9
2017-Nov-09 01:30N 59°42' E 023°21'4 8.9
2017-Nov-09 01:00N 59°42' E 023°29'4 9.0
2017-Nov-09 00:30N 59°43' E 023°38'4 9.0
2017-Nov-09 00:00N 59°44' E 023°47'5 9.0
2017-Nov-08 23:30N 59°45' E 023°56'4 8.8
2017-Nov-08 23:00N 59°46' E 024°04'7 8.9
2017-Nov-08 22:11N 59°48' E 024°18'2 8.6
2017-Nov-08 22:00N 59°48' E 024°21'4 8.9
2017-Nov-08 21:31N 59°49' E 024°30'5 9.5
2017-Nov-08 21:00N 59°50' E 024°39'4 7.8
2017-Nov-08 20:30N 59°51' E 024°46'7 8.2
2017-Nov-08 19:37N 59°52' E 025°01'1 8.7
2017-Nov-08 19:30N 59°52' E 025°03'4 8.7
2017-Nov-08 19:00N 59°54' E 025°11'4 8.6
2017-Nov-08 18:29N 59°54' E 025°20'29 8.8
2017-Nov-08 15:10N 60°07' E 026°12'1 8.9
2017-Nov-08 15:00N 60°08' E 026°14'4 8.8
2017-Nov-08 14:31N 60°10' E 026°22'5 9.4
2017-Nov-08 14:00N 60°15' E 026°26'510.0
2017-Nov-08 13:30N 60°18' E 026°33'510.5
2017-Nov-08 13:00N 60°22' E 026°41'510.6
2017-Nov-08 12:30N 60°24' E 026°51'4 7.3
2017-Nov-08 12:00N 60°26' E 026°56'0 0.6
2017-Nov-08 11:29N 60°26' E 026°55'0 0.0
2017-Nov-08 10:59N 60°26' E 026°55'0 0.0
2017-Nov-08 10:29N 60°26' E 026°55'0 0.0
2017-Nov-08 09:59N 60°26' E 026°55'0 0.0
2017-Nov-08 09:29N 60°26' E 026°55'0 0.0
2017-Nov-08 08:59N 60°26' E 026°55'0 0.0
2017-Nov-08 08:30N 60°26' E 026°55'0 0.0
2017-Nov-08 07:59N 60°26' E 026°55'0 0.0
2017-Nov-08 07:29N 60°26' E 026°55'0 0.0
2017-Nov-08 06:59N 60°26' E 026°55'0 0.0
2017-Nov-08 06:29N 60°26' E 026°55'0 0.0
2017-Nov-08 05:59N 60°26' E 026°55'0 0.0
2017-Nov-08 05:29N 60°26' E 026°55'0 0.0
2017-Nov-08 04:59N 60°26' E 026°55'0 0.0
2017-Nov-08 04:29N 60°26' E 026°55'0 0.0
2017-Nov-08 03:59N 60°26' E 026°55'0 0.9
2017-Nov-08 03:30N 60°26' E 026°56'815.4
2017-Nov-08 02:58N 60°22' E 026°42'3 6.6
2017-Nov-08 02:30N 60°20' E 026°37'612.9
2017-Nov-08 02:00N 60°15' E 026°28'  
Track history (hours):
 
Tides and Currents Weather Stations Pressure Air Temp Water Temp Dewpoint Dewpoint Depression Visibility Wind Speed Wind Dir Waves Ship Positions

Morgenstond III

Last reported at 2017-Nov-18 01:39 UTC. Time now 2017-Nov-18 02:58 UTC.
Position N 59°50' E 025°19'.

Length 110 m; draft 3.9 m.

Type: Cargo ship. MMSI: 244562000.

Date/timePositionNaut miles runAvg speedWind from/ knotsBaromVisibWave heightAir tempDewpointWater temp
2017-Nov-18 01:39N 59°50' E 025°19'213.2
2017-Nov-18 01:30N 59°49' E 025°15'813.0
2017-Nov-18 00:54N 59°47' E 024°60'512.7
2017-Nov-18 00:30N 59°46' E 024°50'612.9
2017-Nov-18 00:01N 59°45' E 024°38'714.1
2017-Nov-17 23:31N 59°44' E 024°24'611.6
2017-Nov-17 23:00N 59°43' E 024°12'712.7
2017-Nov-17 22:27N 59°42' E 023°59'612.7
2017-Nov-17 22:01N 59°42' E 023°48'612.7
2017-Nov-17 21:30N 59°42' E 023°35'612.8
2017-Nov-17 21:01N 59°42' E 023°22'612.9
2017-Nov-17 20:30N 59°42' E 023°09'611.4
2017-Nov-17 20:01N 59°46' E 023°01'4 7.2
2017-Nov-17 19:29N 59°48' E 023°07'510.5
2017-Nov-17 19:01N 59°49' E 023°17'4 7.4
2017-Nov-17 18:30N 59°53' E 023°14'0 0.0
2017-Nov-17 17:56N 59°53' E 023°14'0 0.0
2017-Nov-17 17:29N 59°53' E 023°14'0 0.0
2017-Nov-17 16:59N 59°53' E 023°14'0 0.0
2017-Nov-17 16:29N 59°53' E 023°14'0 0.0
2017-Nov-17 15:56N 59°53' E 023°14'0 0.0
2017-Nov-17 15:29N 59°53' E 023°14'0 0.0
2017-Nov-17 14:59N 59°53' E 023°14'0 0.0
2017-Nov-17 14:26N 59°53' E 023°14'0 0.0
2017-Nov-17 13:53N 59°53' E 023°14'0 0.0
2017-Nov-17 13:29N 59°53' E 023°14'0 0.0
2017-Nov-17 12:59N 59°53' E 023°14'0 0.0
2017-Nov-17 12:29N 59°53' E 023°14'0 0.0
2017-Nov-17 11:59N 59°53' E 023°14'0 0.0
2017-Nov-17 11:29N 59°53' E 023°14'1 2.2
2017-Nov-17 11:00N 59°52' E 023°15'4 8.3
2017-Nov-17 10:30N 59°48' E 023°13'511.0
2017-Nov-17 10:00N 59°47' E 023°02'4 7.6
2017-Nov-17 09:30N 59°43' E 023°04'3 6.5
2017-Nov-17 09:00N 59°42' E 023°10'4 7.0
2017-Nov-17 08:30N 59°41' E 023°17'3 6.7
2017-Nov-17 08:00N 59°41' E 023°23'3 6.4
2017-Nov-17 07:30N 59°40' E 023°30'4 7.2
2017-Nov-17 07:00N 59°39' E 023°37'4 8.8
2017-Nov-17 06:30N 59°38' E 023°45'5 9.2
2017-Nov-17 06:01N 59°37' E 023°54'910.3
2017-Nov-17 05:07N 59°35' E 024°12'310.8
2017-Nov-17 04:52N 59°35' E 024°17'410.7
2017-Nov-17 04:31N 59°34' E 024°24'510.7
2017-Nov-17 04:00N 59°29' E 024°30'1 1.5
2017-Nov-17 03:28N 59°29' E 024°32'0 0.0
2017-Nov-17 02:58N 59°29' E 024°32'0 0.0
2017-Nov-17 02:28N 59°29' E 024°32'0 0.0
2017-Nov-17 01:58N 59°29' E 024°32'0 0.0
2017-Nov-17 01:28N 59°29' E 024°32'0 0.0
2017-Nov-17 00:58N 59°29' E 024°32'0 0.0
2017-Nov-17 00:28N 59°29' E 024°32'0 0.1
2017-Nov-16 23:58N 59°29' E 024°32'1 1.7
2017-Nov-16 23:30N 59°29' E 024°30'3 5.2
2017-Nov-16 23:00N 59°31' E 024°27'5 9.5
2017-Nov-16 22:30N 59°36' E 024°24'510.3
2017-Nov-16 22:00N 59°40' E 024°29'510.9
2017-Nov-16 21:30N 59°43' E 024°39'510.5
2017-Nov-16 21:01N 59°47' E 024°44'510.9
2017-Nov-16 20:30N 59°49' E 024°54'611.1
2017-Nov-16 20:00N 59°51' E 025°05'611.1
2017-Nov-16 19:30N 59°52' E 025°15'3110.8
2017-Nov-16 16:36N 60°05' E 026°12'111.1
2017-Nov-16 16:30N 60°06' E 026°13'611.3
2017-Nov-16 16:00N 60°10' E 026°21'611.3
2017-Nov-16 15:30N 60°15' E 026°27'510.2
2017-Nov-16 15:00N 60°19' E 026°34'611.4
2017-Nov-16 14:30N 60°22' E 026°43'611.2
2017-Nov-16 14:00N 60°24' E 026°54'2 4.0
2017-Nov-16 13:30N 60°26' E 026°55'0 0.0
2017-Nov-16 12:59N 60°26' E 026°55'0 0.0
2017-Nov-16 12:29N 60°26' E 026°55'0 0.0
2017-Nov-16 11:59N 60°26' E 026°55'0 0.0
2017-Nov-16 11:29N 60°26' E 026°55'0 0.0
2017-Nov-16 10:59N 60°26' E 026°55'0 0.0
2017-Nov-16 10:29N 60°26' E 026°55'0 0.0
2017-Nov-16 09:59N 60°26' E 026°55'0 0.0
2017-Nov-16 09:29N 60°26' E 026°55'0 0.0
2017-Nov-16 08:59N 60°26' E 026°55'0 0.0
2017-Nov-16 08:29N 60°26' E 026°55'0 0.0
2017-Nov-16 07:59N 60°26' E 026°55'0 0.0
2017-Nov-16 07:29N 60°26' E 026°55'0 0.0
2017-Nov-16 06:59N 60°26' E 026°55'0 0.0
2017-Nov-16 06:29N 60°26' E 026°55'0 0.0
2017-Nov-16 05:59N 60°26' E 026°55'0 0.0
2017-Nov-16 05:29N 60°26' E 026°55'0 0.0
2017-Nov-16 04:59N 60°26' E 026°55'0 0.0
2017-Nov-16 04:29N 60°26' E 026°55'0 0.0
2017-Nov-16 03:59N 60°26' E 026°55'0 0.0
2017-Nov-16 03:29N 60°26' E 026°55'0 0.0
2017-Nov-16 02:59N 60°26' E 026°55'1 1.4
2017-Nov-16 02:30N 60°26' E 026°56'611.1
2017-Nov-16 02:01N 60°23' E 026°47'612.1
2017-Nov-16 01:31N 60°20' E 026°37'612.3
2017-Nov-16 01:00N 60°15' E 026°28'5 9.7
2017-Nov-16 00:30N 60°11' E 026°23'510.0
2017-Nov-16 00:00N 60°07' E 026°17'34 9.7
2017-Nov-15 20:31N 59°49' E 025°19'011.2
2017-Nov-15 20:30N 59°49' E 025°19'611.0
2017-Nov-15 20:00N 59°48' E 025°08'511.0
2017-Nov-15 19:30N 59°47' E 024°57'611.0
2017-Nov-15 19:00N 59°46' E 024°47'510.9
2017-Nov-15 18:30N 59°45' E 024°36'611.0
2017-Nov-15 18:01N 59°44' E 024°25'510.8
2017-Nov-15 17:30N 59°43' E 024°15'610.9
2017-Nov-15 16:55N 59°43' E 024°02'410.9
2017-Nov-15 16:30N 59°42' E 023°53'510.8
2017-Nov-15 16:00N 59°42' E 023°42'510.8
2017-Nov-15 15:30N 59°42' E 023°32'510.9
2017-Nov-15 15:00N 59°42' E 023°21'611.1
2017-Nov-15 14:30N 59°42' E 023°10'510.6
2017-Nov-15 14:00N 59°45' E 023°01'3 6.2
2017-Nov-15 13:30N 59°48' E 023°05'611.7
2017-Nov-15 13:00N 59°49' E 023°16'4 8.1
2017-Nov-15 12:30N 59°53' E 023°14'0 0.2
2017-Nov-15 12:00N 59°53' E 023°14'0 0.0
2017-Nov-15 11:30N 59°53' E 023°14'0 0.0
2017-Nov-15 11:00N 59°53' E 023°14'0 0.0
2017-Nov-15 10:27N 59°53' E 023°14'0 0.0
2017-Nov-15 10:00N 59°53' E 023°14'0 0.0
2017-Nov-15 09:12N 59°53' E 023°14'0 0.0
2017-Nov-15 09:00N 59°53' E 023°14'0 0.0
2017-Nov-15 08:30N 59°53' E 023°14'0 0.0
2017-Nov-15 08:00N 59°53' E 023°14'0 0.0
2017-Nov-15 07:30N 59°53' E 023°14'0 0.0
2017-Nov-15 06:54N 59°53' E 023°14'0 0.0
2017-Nov-15 06:30N 59°53' E 023°14'0 0.0
2017-Nov-15 06:00N 59°53' E 023°14'0 0.0
2017-Nov-15 05:30N 59°53' E 023°14'0 0.0
2017-Nov-15 05:00N 59°53' E 023°14'0 0.0
2017-Nov-15 04:30N 59°53' E 023°14'1 1.6
2017-Nov-15 04:01N 59°52' E 023°15'4 8.0
2017-Nov-15 03:30N 59°48' E 023°14'611.2
2017-Nov-15 03:00N 59°48' E 023°03'4 7.1
2017-Nov-15 02:30N 59°44' E 023°04'4 8.1
2017-Nov-15 01:59N 59°42' E 023°12'4 9.0
2017-Nov-15 01:30N 59°42' E 023°20'4 8.9
2017-Nov-15 01:00N 59°42' E 023°29'4 8.9
2017-Nov-15 00:30N 59°43' E 023°38'4 8.9
2017-Nov-15 00:00N 59°44' E 023°46'4 8.8
2017-Nov-14 23:30N 59°45' E 023°55'5 8.8
2017-Nov-14 22:58N 59°46' E 024°04'6 9.0
2017-Nov-14 22:18N 59°47' E 024°16'3 9.0
2017-Nov-14 22:00N 59°48' E 024°21'510.6
2017-Nov-14 21:30N 59°49' E 024°31'4 7.4
2017-Nov-14 21:01N 59°50' E 024°38'4 8.7
2017-Nov-14 20:30N 59°51' E 024°47'7 8.8
2017-Nov-14 19:42N 59°53' E 025°00'2 8.7
2017-Nov-14 19:30N 59°53' E 025°03'4 8.7
2017-Nov-14 19:00N 59°54' E 025°12'5 8.5
2017-Nov-14 18:28N 59°55' E 025°21'10 8.7
2017-Nov-14 17:16N 59°57' E 025°41'18 9.4
2017-Nov-14 15:19N 60°07' E 026°12'3 9.7
2017-Nov-14 15:00N 60°09' E 026°17'5 9.9
2017-Nov-14 14:31N 60°13' E 026°24'5 9.6
2017-Nov-14 14:00N 60°16' E 026°30'611.3
2017-Nov-14 13:31N 60°20' E 026°38'612.7
2017-Nov-14 13:01N 60°23' E 026°49'4 8.9
2017-Nov-14 12:31N 60°26' E 026°56'1 1.1
2017-Nov-14 12:00N 60°26' E 026°55'0 0.0
2017-Nov-14 11:30N 60°26' E 026°55'0 0.0
2017-Nov-14 11:00N 60°26' E 026°55'0 0.0
2017-Nov-14 10:30N 60°26' E 026°55'0 0.0
2017-Nov-14 10:00N 60°26' E 026°55'0 0.0
2017-Nov-14 09:30N 60°26' E 026°55'0 0.0
2017-Nov-14 09:00N 60°26' E 026°55'0 0.0
2017-Nov-14 08:30N 60°26' E 026°55'0 0.0
2017-Nov-14 08:00N 60°26' E 026°55'0 0.0
2017-Nov-14 07:30N 60°26' E 026°55'0 0.0
2017-Nov-14 07:00N 60°26' E 026°55'0 0.0
2017-Nov-14 06:30N 60°26' E 026°55'0 0.0
2017-Nov-14 06:00N 60°26' E 026°55'0 0.0
2017-Nov-14 05:30N 60°26' E 026°55'0 0.0
2017-Nov-14 05:00N 60°26' E 026°55'0 0.0
2017-Nov-14 04:30N 60°26' E 026°55'0 0.0
2017-Nov-14 04:00N 60°26' E 026°55'0 0.0
2017-Nov-14 03:30N 60°26' E 026°55'0 0.1
2017-Nov-14 03:00N 60°26' E 026°55'3 6.6
2017-Nov-14 02:30N 60°24' E 026°51'612.6
2017-Nov-14 02:00N 60°21' E 026°39'612.7
2017-Nov-14 01:31N 60°17' E 026°30'4 9.0
2017-Nov-14 01:01N 60°13' E 026°24'4 7.2
2017-Nov-14 00:31N 60°10' E 026°21'4 8.5
2017-Nov-14 00:00N 60°07' E 026°16'93 4.2
2017-Nov-13 02:00N 59°42' E 023°18'510.5
2017-Nov-13 01:30N 59°42' E 023°29'510.6
2017-Nov-13 01:01N 59°43' E 023°39'510.6
2017-Nov-13 00:30N 59°44' E 023°49'510.6
2017-Nov-13 00:00N 59°45' E 023°59'1010.5
2017-Nov-12 23:05N 59°47' E 024°18'110.5
2017-Nov-12 23:00N 59°48' E 024°20'510.3
2017-Nov-12 22:30N 59°49' E 024°30'510.2
2017-Nov-12 22:00N 59°50' E 024°39'10 9.6
2017-Nov-12 20:55N 59°52' E 024°60'4 9.8
2017-Nov-12 20:29N 59°53' E 025°08'5 9.7
2017-Nov-12 20:01N 59°55' E 025°17'6 9.9
2017-Nov-12 19:26N 59°56' E 025°28'2410.1
2017-Nov-12 17:00N 60°07' E 026°12'510.5
2017-Nov-12 16:31N 60°10' E 026°20'510.4
2017-Nov-12 16:00N 60°14' E 026°26'510.2
2017-Nov-12 15:31N 60°18' E 026°33'611.1
2017-Nov-12 15:00N 60°22' E 026°41'611.1
2017-Nov-12 14:30N 60°24' E 026°51'3 6.2
2017-Nov-12 14:01N 60°26' E 026°55'0 0.4
2017-Nov-12 13:29N 60°26' E 026°55'0 0.0
2017-Nov-12 12:59N 60°26' E 026°55'0 0.0
2017-Nov-12 12:29N 60°26' E 026°55'0 0.0
2017-Nov-12 11:59N 60°26' E 026°55'0 0.0
2017-Nov-12 11:29N 60°26' E 026°55'0 0.0
2017-Nov-12 10:59N 60°26' E 026°55'0 0.0
2017-Nov-12 10:29N 60°26' E 026°55'0 0.0
2017-Nov-12 09:59N 60°26' E 026°55'0 0.0
2017-Nov-12 09:29N 60°26' E 026°55'0 0.0
2017-Nov-12 08:59N 60°26' E 026°55'0 0.0
2017-Nov-12 08:28N 60°26' E 026°55'0 0.0
2017-Nov-12 07:59N 60°26' E 026°55'0 0.0
2017-Nov-12 07:29N 60°26' E 026°55'0 0.0
2017-Nov-12 06:59N 60°26' E 026°55'0 0.0
2017-Nov-12 06:29N 60°26' E 026°55'0 0.0
2017-Nov-12 05:59N 60°26' E 026°55'0 0.0
2017-Nov-12 05:29N 60°26' E 026°55'0 0.0
2017-Nov-12 04:59N 60°26' E 026°55'0 0.0
2017-Nov-12 04:29N 60°26' E 026°55'0 0.0
2017-Nov-12 03:59N 60°26' E 026°55'0 0.0
2017-Nov-12 03:29N 60°26' E 026°55'0 0.0
2017-Nov-12 02:59N 60°26' E 026°55'2 4.0
2017-Nov-12 02:30N 60°24' E 026°54'611.5
2017-Nov-12 02:00N 60°22' E 026°43'611.6
2017-Nov-12 01:30N 60°19' E 026°34'5 9.9
2017-Nov-12 01:01N 60°16' E 026°26'611.1
2017-Nov-12 00:31N 60°11' E 026°21'611.1
2017-Nov-12 00:01N 60°06' E 026°15'3210.8
2017-Nov-11 21:05N 59°50' E 025°21'111.5
2017-Nov-11 21:00N 59°49' E 025°19'611.3
2017-Nov-11 20:30N 59°48' E 025°08'611.2
2017-Nov-11 20:00N 59°47' E 024°57'611.3
2017-Nov-11 19:30N 59°46' E 024°46'611.6
2017-Nov-11 19:01N 59°45' E 024°35'611.6
2017-Nov-11 18:30N 59°44' E 024°23'1111.9
2017-Nov-11 17:36N 59°43' E 024°02'312.1
2017-Nov-11 17:23N 59°42' E 023°57'512.2
2017-Nov-11 17:00N 59°42' E 023°48'612.2
2017-Nov-11 16:30N 59°42' E 023°36'612.2
2017-Nov-11 16:00N 59°42' E 023°24'612.3
2017-Nov-11 15:30N 59°43' E 023°12'510.8
2017-Nov-11 15:00N 59°45' E 023°02'4 7.5
2017-Nov-11 14:30N 59°48' E 023°08'510.6
2017-Nov-11 14:00N 59°50' E 023°17'3 5.9
2017-Nov-11 13:30N 59°53' E 023°13'0 0.0
2017-Nov-11 13:00N 59°53' E 023°13'0 0.0
2017-Nov-11 12:30N 59°53' E 023°13'0 0.0
2017-Nov-11 12:00N 59°53' E 023°13'0 0.0
2017-Nov-11 11:30N 59°53' E 023°13'0 0.0
2017-Nov-11 11:00N 59°53' E 023°13'0 0.0
2017-Nov-11 10:30N 59°53' E 023°13'0 0.0
2017-Nov-11 10:00N 59°53' E 023°13'0 0.0
2017-Nov-11 09:30N 59°53' E 023°13'0 0.0
2017-Nov-11 08:57N 59°53' E 023°13'0 0.0
2017-Nov-11 08:30N 59°53' E 023°13'0 0.0
2017-Nov-11 08:00N 59°53' E 023°13'0 0.0
2017-Nov-11 07:30N 59°53' E 023°13'0 0.0
2017-Nov-11 07:00N 59°53' E 023°13'0 0.0
2017-Nov-11 06:30N 59°53' E 023°13'0 0.0
2017-Nov-11 06:00N 59°53' E 023°13'0 0.0
2017-Nov-11 05:30N 59°53' E 023°13'1 1.8
2017-Nov-11 05:00N 59°52' E 023°15'4 8.4
2017-Nov-11 04:30N 59°48' E 023°13'510.4
2017-Nov-11 04:00N 59°48' E 023°03'4 7.6
2017-Nov-11 03:28N 59°44' E 023°04'510.5
2017-Nov-11 03:00N 59°42' E 023°14'611.0
2017-Nov-11 02:30N 59°42' E 023°25'611.2
2017-Nov-11 02:00N 59°43' E 023°35'611.1
2017-Nov-11 01:30N 59°44' E 023°46'611.1
2017-Nov-11 01:00N 59°45' E 023°57'610.9
2017-Nov-11 00:29N 59°46' E 024°08'511.0
2017-Nov-11 00:00N 59°47' E 024°18'510.9
2017-Nov-10 23:30N 59°49' E 024°29'510.9
2017-Nov-10 23:00N 59°50' E 024°39'710.9
2017-Nov-10 22:21N 59°51' E 024°53'410.7
2017-Nov-10 22:00N 59°52' E 025°00'510.7
2017-Nov-10 21:30N 59°54' E 025°11'510.6
2017-Nov-10 20:59N 59°55' E 025°21'510.6
2017-Nov-10 20:29N 59°56' E 025°32'2310.4
2017-Nov-10 18:17N 60°07' E 026°12'310.6
2017-Nov-10 18:00N 60°09' E 026°17'510.4
2017-Nov-10 17:30N 60°12' E 026°24'5 9.5
2017-Nov-10 17:00N 60°16' E 026°30'510.7
2017-Nov-10 16:30N 60°20' E 026°37'510.5
2017-Nov-10 16:00N 60°23' E 026°46'510.6
2017-Nov-10 15:30N 60°25' E 026°56'1 2.1
2017-Nov-10 15:00N 60°26' E 026°55'0 0.0
2017-Nov-10 14:28N 60°26' E 026°55'0 0.0
2017-Nov-10 13:58N 60°26' E 026°55'0 0.0
2017-Nov-10 13:28N 60°26' E 026°55'0 0.0
2017-Nov-10 12:58N 60°26' E 026°55'0 0.0
2017-Nov-10 12:28N 60°26' E 026°55'0 0.0
2017-Nov-10 11:58N 60°26' E 026°55'0 0.0
2017-Nov-10 11:28N 60°26' E 026°55'0 0.0
2017-Nov-10 10:58N 60°26' E 026°55'0 0.0
2017-Nov-10 10:25N 60°26' E 026°55'0 0.0
2017-Nov-10 09:58N 60°26' E 026°55'0 0.0
2017-Nov-10 09:28N 60°26' E 026°55'0 0.0
2017-Nov-10 08:58N 60°26' E 026°55'0 0.0
2017-Nov-10 08:28N 60°26' E 026°55'0 0.0
2017-Nov-10 07:58N 60°26' E 026°55'0 0.0
2017-Nov-10 07:28N 60°26' E 026°55'0 0.0
2017-Nov-10 06:58N 60°26' E 026°55'0 0.0
2017-Nov-10 06:28N 60°26' E 026°55'0 0.0
2017-Nov-10 05:58N 60°26' E 026°55'0 0.0
2017-Nov-10 05:28N 60°26' E 026°55'0 0.0
2017-Nov-10 04:58N 60°26' E 026°55'0 0.0
2017-Nov-10 04:28N 60°26' E 026°55'0 0.0
2017-Nov-10 03:58N 60°26' E 026°55'0 0.3
2017-Nov-10 03:30N 60°26' E 026°55'4 7.3
2017-Nov-10 03:01N 60°24' E 026°51'612.4
2017-Nov-10 02:31N 60°21' E 026°39'612.9
2017-Nov-10 02:01N 60°16' E 026°30'612.1
2017-Nov-10 01:31N 60°12' E 026°22'713.1
2017-Nov-10 01:00N 60°06' E 026°15'3312.2
2017-Nov-09 22:19N 59°49' E 025°20'412.2
2017-Nov-09 22:00N 59°48' E 025°12'612.6
2017-Nov-09 21:30N 59°47' E 024°60'612.8
2017-Nov-09 21:00N 59°46' E 024°47'612.4
2017-Nov-09 20:30N 59°45' E 024°35'612.0
2017-Nov-09 20:00N 59°44' E 024°24'612.4
2017-Nov-09 19:30N 59°43' E 024°12'612.5
2017-Nov-09 19:00N 59°42' E 023°59'612.3
2017-Nov-09 18:30N 59°42' E 023°47'612.3
2017-Nov-09 18:01N 59°42' E 023°35'612.2
2017-Nov-09 17:30N 59°42' E 023°23'612.0
2017-Nov-09 17:01N 59°42' E 023°11'510.5
2017-Nov-09 16:31N 59°45' E 023°02'5 5.8
2017-Nov-09 15:37N 59°48' E 023°11'110.8
2017-Nov-09 15:31N 59°48' E 023°13'4 8.2
2017-Nov-09 15:01N 59°52' E 023°15'1 2.1
2017-Nov-09 14:30N 59°53' E 023°13'0 0.0
2017-Nov-09 13:57N 59°53' E 023°13'0 0.0
2017-Nov-09 13:30N 59°53' E 023°13'0 0.0
2017-Nov-09 13:00N 59°53' E 023°13'0 0.0
2017-Nov-09 12:30N 59°53' E 023°13'0 0.0
2017-Nov-09 12:00N 59°53' E 023°13'0 0.0
2017-Nov-09 11:30N 59°53' E 023°13'0 0.0
2017-Nov-09 11:00N 59°53' E 023°13'0 0.0
2017-Nov-09 10:30N 59°53' E 023°13'0 0.0
2017-Nov-09 09:57N 59°53' E 023°13'0 0.0
2017-Nov-09 09:30N 59°53' E 023°13'0 0.0
2017-Nov-09 08:57N 59°53' E 023°13'0 0.0
2017-Nov-09 08:30N 59°53' E 023°13'0 0.0
2017-Nov-09 08:00N 59°53' E 023°13'0 0.0
2017-Nov-09 07:30N 59°53' E 023°13'0 0.0
2017-Nov-09 07:00N 59°53' E 023°13'0 0.0
2017-Nov-09 06:30N 59°53' E 023°13'0 0.0
2017-Nov-09 06:00N 59°53' E 023°13'0 0.0
2017-Nov-09 05:30N 59°53' E 023°13'0 0.0
2017-Nov-09 05:00N 59°53' E 023°13'0 0.0
2017-Nov-09 04:30N 59°53' E 023°13'1 1.9
2017-Nov-09 04:00N 59°52' E 023°15'4 8.2
2017-Nov-09 03:30N 59°48' E 023°13'611.2
2017-Nov-09 03:00N 59°47' E 023°02'4 7.9
2017-Nov-09 02:30N 59°44' E 023°04'4 8.0
2017-Nov-09 01:58N 59°42' E 023°13'4 8.9
2017-Nov-09 01:30N 59°42' E 023°21'4 8.9
2017-Nov-09 01:00N 59°42' E 023°29'4 9.0
2017-Nov-09 00:30N 59°43' E 023°38'4 9.0
2017-Nov-09 00:00N 59°44' E 023°47'5 9.0
2017-Nov-08 23:30N 59°45' E 023°56'4 8.8
2017-Nov-08 23:00N 59°46' E 024°04'7 8.9
2017-Nov-08 22:11N 59°48' E 024°18'2 8.6
2017-Nov-08 22:00N 59°48' E 024°21'4 8.9
2017-Nov-08 21:31N 59°49' E 024°30'5 9.5
2017-Nov-08 21:00N 59°50' E 024°39'4 7.8
2017-Nov-08 20:30N 59°51' E 024°46'7 8.2
2017-Nov-08 19:37N 59°52' E 025°01'1 8.7
2017-Nov-08 19:30N 59°52' E 025°03'4 8.7
2017-Nov-08 19:00N 59°54' E 025°11'4 8.6
2017-Nov-08 18:29N 59°54' E 025°20'29 8.8
2017-Nov-08 15:10N 60°07' E 026°12'1 8.9
2017-Nov-08 15:00N 60°08' E 026°14'4 8.8
2017-Nov-08 14:31N 60°10' E 026°22'5 9.4
2017-Nov-08 14:00N 60°15' E 026°26'510.0
2017-Nov-08 13:30N 60°18' E 026°33'510.5
2017-Nov-08 13:00N 60°22' E 026°41'510.6
2017-Nov-08 12:30N 60°24' E 026°51'4 7.3
2017-Nov-08 12:00N 60°26' E 026°56'0 0.6
2017-Nov-08 11:29N 60°26' E 026°55'0 0.0
2017-Nov-08 10:59N 60°26' E 026°55'0 0.0
2017-Nov-08 10:29N 60°26' E 026°55'0 0.0
2017-Nov-08 09:59N 60°26' E 026°55'0 0.0
2017-Nov-08 09:29N 60°26' E 026°55'0 0.0
2017-Nov-08 08:59N 60°26' E 026°55'0 0.0
2017-Nov-08 08:30N 60°26' E 026°55'0 0.0
2017-Nov-08 07:59N 60°26' E 026°55'0 0.0
2017-Nov-08 07:29N 60°26' E 026°55'0 0.0
2017-Nov-08 06:59N 60°26' E 026°55'0 0.0
2017-Nov-08 06:29N 60°26' E 026°55'0 0.0
2017-Nov-08 05:59N 60°26' E 026°55'0 0.0
2017-Nov-08 05:29N 60°26' E 026°55'0 0.0
2017-Nov-08 04:59N 60°26' E 026°55'0 0.0
2017-Nov-08 04:29N 60°26' E 026°55'0 0.0
2017-Nov-08 03:59N 60°26' E 026°55'0 0.9
2017-Nov-08 03:30N 60°26' E 026°56'815.4
2017-Nov-08 02:58N 60°22' E 026°42'3 6.6
2017-Nov-08 02:30N 60°20' E 026°37'612.9
2017-Nov-08 02:00N 60°15' E 026°28'  

Dump ship's entire track history